Archival Weather

Norman Y Mineta San Jose Intl

San Jose, California (KSJC)

Report from: Saturday, February 10, 2024 7:53 AM PST
Current time: Saturday, June 22, 2024 3:29 AM PDT

Current weather – Weather history – Daily summaries
Weather forecast

Temperature7.2°C (45.0°F)
Dew point4.4°C (39.9°F)
Winds Calm
Visibility10 mi. (16.1 km)
Clouds Few clouds 1,000 ft. (305 m)
Altimeter30.14 in.Hg (1021 mB)
Relative humidity82 %
Density altitude-1,058 ft. (-323 m)
Sea-level pressure102.0 kPa (1020 mB, 30.13 in.Hg)
Remarks Automated weather observing station with precipitation discriminator
Flight conditions Visual Meteorological Conditions
Raw dataKSJC 101553Z 00000KT 10SM FEW010 07/04 A3014 RMK AO2 SLP204 T00720044
An error has occurred. This application may no longer respond until reloaded. Reload 🗙